sensor_id;sensor_type;location;lat;lon;timestamp;pressure;altitude;pressure_sealevel;temperature;humidity
11987;BME280;6053;51.382;6.768;2023-06-24T00:01:15;102060.59;;;21.75;100.00
11987;BME280;6053;51.382;6.768;2023-06-24T00:03:43;102066.22;;;21.70;100.00
11987;BME280;6053;51.382;6.768;2023-06-24T00:06:14;102052.97;;;21.65;100.00
11987;BME280;6053;51.382;6.768;2023-06-24T00:08:45;102063.66;;;21.63;100.00
11987;BME280;6053;51.382;6.768;2023-06-24T00:11:14;102065.88;;;21.61;100.00
11987;BME280;6053;51.382;6.768;2023-06-24T00:13:43;102063.03;;;21.56;100.00
11987;BME280;6053;51.382;6.768;2023-06-24T00:16:11;102071.75;;;21.54;100.00
11987;BME280;6053;51.382;6.768;2023-06-24T00:18:41;102061.09;;;21.56;100.00
11987;BME280;6053;51.382;6.768;2023-06-24T00:21:09;102068.66;;;21.51;100.00
11987;BME280;6053;51.382;6.768;2023-06-24T00:23:38;102070.88;;;21.44;100.00
11987;BME280;6053;51.382;6.768;2023-06-24T00:26:08;102059.91;;;21.42;100.00
11987;BME280;6053;51.382;6.768;2023-06-24T00:28:36;102056.25;;;21.41;100.00
11987;BME280;6053;51.382;6.768;2023-06-24T00:31:04;102059.56;;;21.33;100.00
11987;BME280;6053;51.382;6.768;2023-06-24T00:33:33;102058.19;;;21.36;100.00
11987;BME280;6053;51.382;6.768;2023-06-24T00:36:05;102063.53;;;21.37;100.00
11987;BME280;6053;51.382;6.768;2023-06-24T00:38:35;102056.34;;;21.14;100.00
11987;BME280;6053;51.382;6.768;2023-06-24T00:41:04;102061.72;;;21.21;100.00
11987;BME280;6053;51.382;6.768;2023-06-24T00:43:32;102059.22;;;21.25;100.00
11987;BME280;6053;51.382;6.768;2023-06-24T00:46:01;102062.28;;;21.18;100.00
11987;BME280;6053;51.382;6.768;2023-06-24T00:48:29;102056.09;;;21.16;100.00
11987;BME280;6053;51.382;6.768;2023-06-24T00:50:59;102053.53;;;21.09;100.00
11987;BME280;6053;51.382;6.768;2023-06-24T00:53:29;102054.06;;;21.06;100.00
11987;BME280;6053;51.382;6.768;2023-06-24T00:55:58;102059.69;;;21.06;100.00
11987;BME280;6053;51.382;6.768;2023-06-24T00:58:31;102061.38;;;21.07;100.00
11987;BME280;6053;51.382;6.768;2023-06-24T01:01:00;102056.59;;;21.03;100.00
11987;BME280;6053;51.382;6.768;2023-06-24T01:03:30;102061.06;;;21.04;100.00
11987;BME280;6053;51.382;6.768;2023-06-24T01:05:59;102057.13;;;21.05;100.00
11987;BME280;6053;51.382;6.768;2023-06-24T01:08:29;102057.66;;;20.97;100.00
11987;BME280;6053;51.382;6.768;2023-06-24T01:10:58;102060.69;;;20.90;100.00
11987;BME280;6053;51.382;6.768;2023-06-24T01:13:26;102052.47;;;20.78;100.00
11987;BME280;6053;51.382;6.768;2023-06-24T01:15:55;102045.19;;;20.82;100.00
11987;BME280;6053;51.382;6.768;2023-06-24T01:18:32;102049.75;;;20.88;100.00
11987;BME280;6053;51.382;6.768;2023-06-24T01:21:06;102043.25;;;20.83;100.00
11987;BME280;6053;51.382;6.768;2023-06-24T01:24:17;102039.03;;;20.80;100.00
11987;BME280;6053;51.382;6.768;2023-06-24T01:33:26;102038.72;;;20.77;100.00
11987;BME280;6053;51.382;6.768;2023-06-24T01:35:57;102043.44;;;20.66;100.00
11987;BME280;6053;51.382;6.768;2023-06-24T01:38:35;102050.31;;;20.53;100.00
11987;BME280;6053;51.382;6.768;2023-06-24T01:41:06;102041.94;;;20.58;100.00
11987;BME280;6053;51.382;6.768;2023-06-24T01:43:36;102036.63;;;20.57;100.00
11987;BME280;6053;51.382;6.768;2023-06-24T01:46:06;102039.72;;;20.60;100.00
11987;BME280;6053;51.382;6.768;2023-06-24T01:48:39;102029.03;;;20.57;100.00
11987;BME280;6053;51.382;6.768;2023-06-24T01:51:15;102039.13;;;20.58;100.00
11987;BME280;6053;51.382;6.768;2023-06-24T01:53:51;102029.47;;;20.44;100.00
11987;BME280;6053;51.382;6.768;2023-06-24T01:56:23;102026.97;;;20.47;100.00
11987;BME280;6053;51.382;6.768;2023-06-24T01:58:56;102030.84;;;20.41;100.00
11987;BME280;6053;51.382;6.768;2023-06-24T02:01:27;102033.34;;;20.38;100.00
11987;BME280;6053;51.382;6.768;2023-06-24T02:03:59;102022.66;;;20.35;100.00
11987;BME280;6053;51.382;6.768;2023-06-24T02:06:29;102024.69;;;20.39;100.00
11987;BME280;6053;51.382;6.768;2023-06-24T02:08:58;102026.28;;;20.30;100.00
11987;BME280;6053;51.382;6.768;2023-06-24T02:11:31;102025.69;;;20.28;100.00
11987;BME280;6053;51.382;6.768;2023-06-24T02:14:02;102026.50;;;20.23;100.00
11987;BME280;6053;51.382;6.768;2023-06-24T02:16:33;102017.06;;;20.02;100.00
11987;BME280;6053;51.382;6.768;2023-06-24T02:19:06;102023.53;;;20.08;100.00
11987;BME280;6053;51.382;6.768;2023-06-24T02:21:35;102014.28;;;20.08;100.00
11987;BME280;6053;51.382;6.768;2023-06-24T02:24:05;102026.63;;;20.07;100.00
11987;BME280;6053;51.382;6.768;2023-06-24T02:26:34;102028.03;;;20.09;100.00
11987;BME280;6053;51.382;6.768;2023-06-24T02:29:04;102028.56;;;20.06;100.00
11987;BME280;6053;51.382;6.768;2023-06-24T02:31:32;102028.56;;;20.06;100.00
11987;BME280;6053;51.382;6.768;2023-06-24T02:34:01;102022.22;;;20.16;100.00
11987;BME280;6053;51.382;6.768;2023-06-24T02:36:31;102023.28;;;20.10;100.00
11987;BME280;6053;51.382;6.768;2023-06-24T02:38:59;102023.75;;;20.01;100.00
11987;BME280;6053;51.382;6.768;2023-06-24T02:41:27;102026.81;;;20.00;100.00
11987;BME280;6053;51.382;6.768;2023-06-24T02:43:56;102020.09;;;20.01;100.00
11987;BME280;6053;51.382;6.768;2023-06-24T02:46:25;102028.41;;;19.91;100.00
11987;BME280;6053;51.382;6.768;2023-06-24T02:48:57;102028.03;;;19.82;100.00
11987;BME280;6053;51.382;6.768;2023-06-24T02:51:26;102021.56;;;19.82;100.00
11987;BME280;6053;51.382;6.768;2023-06-24T02:53:56;102024.44;;;19.87;100.00
11987;BME280;6053;51.382;6.768;2023-06-24T02:56:26;102022.44;;;19.82;100.00
11987;BME280;6053;51.382;6.768;2023-06-24T02:58:55;102020.50;;;19.83;100.00
11987;BME280;6053;51.382;6.768;2023-06-24T03:01:24;102027.16;;;19.82;100.00
11987;BME280;6053;51.382;6.768;2023-06-24T03:03:55;102033.97;;;19.86;100.00
11987;BME280;6053;51.382;6.768;2023-06-24T03:06:24;102033.91;;;19.81;100.00
11987;BME280;6053;51.382;6.768;2023-06-24T03:08:53;102028.56;;;19.79;100.00
11987;BME280;6053;51.382;6.768;2023-06-24T03:11:24;102030.19;;;19.75;100.00
11987;BME280;6053;51.382;6.768;2023-06-24T03:13:54;102040.22;;;19.71;100.00
11987;BME280;6053;51.382;6.768;2023-06-24T03:16:23;102033.19;;;19.68;100.00
11987;BME280;6053;51.382;6.768;2023-06-24T03:18:52;102042.97;;;19.66;100.00
11987;BME280;6053;51.382;6.768;2023-06-24T03:21:20;102036.53;;;19.65;100.00
11987;BME280;6053;51.382;6.768;2023-06-24T03:23:48;102034.22;;;19.62;100.00
11987;BME280;6053;51.382;6.768;2023-06-24T03:26:16;102041.19;;;19.60;100.00
11987;BME280;6053;51.382;6.768;2023-06-24T03:28:46;102033.31;;;19.57;100.00
11987;BME280;6053;51.382;6.768;2023-06-24T03:31:15;102040.34;;;19.59;100.00
11987;BME280;6053;51.382;6.768;2023-06-24T03:33:43;102038.31;;;19.54;100.00
11987;BME280;6053;51.382;6.768;2023-06-24T03:36:12;102040.66;;;19.41;100.00
11987;BME280;6053;51.382;6.768;2023-06-24T03:38:40;102045.22;;;19.47;100.00
11987;BME280;6053;51.382;6.768;2023-06-24T03:41:09;102032.91;;;19.48;100.00
11987;BME280;6053;51.382;6.768;2023-06-24T03:43:37;102039.38;;;19.48;100.00
11987;BME280;6053;51.382;6.768;2023-06-24T03:46:07;102044.50;;;19.57;100.00
11987;BME280;6053;51.382;6.768;2023-06-24T03:48:36;102046.47;;;19.56;100.00
11987;BME280;6053;51.382;6.768;2023-06-24T03:51:04;102045.94;;;19.59;100.00
11987;BME280;6053;51.382;6.768;2023-06-24T03:53:32;102052.31;;;19.54;100.00
11987;BME280;6053;51.382;6.768;2023-06-24T03:56:01;102055.97;;;19.55;100.00
11987;BME280;6053;51.382;6.768;2023-06-24T03:58:29;102050.31;;;19.50;100.00
11987;BME280;6053;51.382;6.768;2023-06-24T04:00:59;102061.22;;;19.51;100.00
11987;BME280;6053;51.382;6.768;2023-06-24T04:03:29;102066.78;;;19.46;100.00
11987;BME280;6053;51.382;6.768;2023-06-24T04:05:59;102071.06;;;19.54;100.00
11987;BME280;6053;51.382;6.768;2023-06-24T04:08:28;102080.91;;;19.57;100.00
11987;BME280;6053;51.382;6.768;2023-06-24T04:10:57;102075.91;;;19.59;100.00
11987;BME280;6053;51.382;6.768;2023-06-24T04:13:27;102076.81;;;19.64;100.00
11987;BME280;6053;51.382;6.768;2023-06-24T04:15:55;102074.78;;;19.60;100.00
11987;BME280;6053;51.382;6.768;2023-06-24T04:18:23;102079.38;;;19.66;100.00
11987;BME280;6053;51.382;6.768;2023-06-24T04:20:53;102084.78;;;19.72;100.00
11987;BME280;6053;51.382;6.768;2023-06-24T04:23:22;102073.16;;;19.42;100.00
11987;BME280;6053;51.382;6.768;2023-06-24T04:25:50;102068.19;;;19.27;100.00
11987;BME280;6053;51.382;6.768;2023-06-24T04:28:18;102066.97;;;18.84;100.00
11987;BME280;6053;51.382;6.768;2023-06-24T04:30:47;102063.81;;;19.14;100.00
11987;BME280;6053;51.382;6.768;2023-06-24T04:33:15;102061.59;;;19.38;100.00
11987;BME280;6053;51.382;6.768;2023-06-24T04:35:44;102068.75;;;19.68;100.00
11987;BME280;6053;51.382;6.768;2023-06-24T04:38:13;102065.88;;;20.12;100.00
11987;BME280;6053;51.382;6.768;2023-06-24T04:40:45;102069.75;;;20.06;100.00
11987;BME280;6053;51.382;6.768;2023-06-24T04:43:14;102070.81;;;20.59;100.00
11987;BME280;6053;51.382;6.768;2023-06-24T04:45:42;102065.97;;;19.95;100.00
11987;BME280;6053;51.382;6.768;2023-06-24T04:48:10;102061.91;;;19.59;100.00
11987;BME280;6053;51.382;6.768;2023-06-24T04:50:39;102061.56;;;18.77;100.00
11987;BME280;6053;51.382;6.768;2023-06-24T04:53:08;102069.13;;;18.77;100.00
11987;BME280;6053;51.382;6.768;2023-06-24T04:55:38;102067.31;;;18.88;100.00
11987;BME280;6053;51.382;6.768;2023-06-24T04:58:06;102063.19;;;19.29;100.00
11987;BME280;6053;51.382;6.768;2023-06-24T05:00:34;102067.44;;;19.15;100.00
11987;BME280;6053;51.382;6.768;2023-06-24T05:03:03;102073.81;;;19.49;100.00
11987;BME280;6053;51.382;6.768;2023-06-24T05:05:31;102075.22;;;20.49;100.00
11987;BME280;6053;51.382;6.768;2023-06-24T05:08:02;102069.72;;;20.97;100.00
11987;BME280;6053;51.382;6.768;2023-06-24T05:10:31;102071.16;;;20.62;100.00
11987;BME280;6053;51.382;6.768;2023-06-24T05:13:00;102069.97;;;20.95;100.00
11987;BME280;6053;51.382;6.768;2023-06-24T05:15:29;102073.59;;;21.33;100.00
11987;BME280;6053;51.382;6.768;2023-06-24T05:17:57;102079.94;;;21.66;100.00
11987;BME280;6053;51.382;6.768;2023-06-24T05:20:25;102071.50;;;21.61;100.00
11987;BME280;6053;51.382;6.768;2023-06-24T05:22:54;102073.25;;;21.19;100.00
11987;BME280;6053;51.382;6.768;2023-06-24T05:25:23;102075.22;;;21.29;100.00
11987;BME280;6053;51.382;6.768;2023-06-24T05:27:51;102071.84;;;20.80;100.00
11987;BME280;6053;51.382;6.768;2023-06-24T05:30:21;102067.31;;;21.69;100.00
11987;BME280;6053;51.382;6.768;2023-06-24T05:32:49;102074.91;;;21.63;100.00
11987;BME280;6053;51.382;6.768;2023-06-24T05:35:17;102072.44;;;21.92;100.00
11987;BME280;6053;51.382;6.768;2023-06-24T05:37:46;102071.72;;;22.43;98.73
11987;BME280;6053;51.382;6.768;2023-06-24T05:40:14;102073.94;;;21.42;100.00
11987;BME280;6053;51.382;6.768;2023-06-24T05:42:43;102070.44;;;20.50;100.00
11987;BME280;6053;51.382;6.768;2023-06-24T05:45:11;102075.13;;;20.66;100.00
11987;BME280;6053;51.382;6.768;2023-06-24T05:47:42;102084.53;;;20.87;100.00
11987;BME280;6053;51.382;6.768;2023-06-24T05:50:10;102071.25;;;19.91;100.00
11987;BME280;6053;51.382;6.768;2023-06-24T05:52:38;102077.81;;;20.56;100.00
11987;BME280;6053;51.382;6.768;2023-06-24T05:55:07;102080.66;;;20.61;100.00
11987;BME280;6053;51.382;6.768;2023-06-24T05:57:36;102079.59;;;20.40;100.00
11987;BME280;6053;51.382;6.768;2023-06-24T06:00:06;102082.34;;;20.08;100.00
11987;BME280;6053;51.382;6.768;2023-06-24T06:02:36;102082.84;;;20.27;100.00
11987;BME280;6053;51.382;6.768;2023-06-24T06:05:06;102085.72;;;20.64;100.00
11987;BME280;6053;51.382;6.768;2023-06-24T06:07:35;102090.06;;;20.50;100.00
11987;BME280;6053;51.382;6.768;2023-06-24T06:10:06;102086.41;;;21.67;100.00
11987;BME280;6053;51.382;6.768;2023-06-24T06:12:35;102085.31;;;21.25;100.00
11987;BME280;6053;51.382;6.768;2023-06-24T06:15:05;102089.81;;;21.79;100.00
11987;BME280;6053;51.382;6.768;2023-06-24T06:17:33;102091.41;;;21.59;100.00
11987;BME280;6053;51.382;6.768;2023-06-24T06:20:02;102085.31;;;21.25;100.00
11987;BME280;6053;51.382;6.768;2023-06-24T06:22:32;102099.41;;;21.30;100.00
11987;BME280;6053;51.382;6.768;2023-06-24T06:25:06;102090.34;;;21.18;100.00
11987;BME280;6053;51.382;6.768;2023-06-24T06:27:34;102092.47;;;22.11;100.00
11987;BME280;6053;51.382;6.768;2023-06-24T06:30:04;102107.19;;;23.00;100.00
11987;BME280;6053;51.382;6.768;2023-06-24T06:32:33;102104.03;;;22.30;100.00
11987;BME280;6053;51.382;6.768;2023-06-24T06:35:01;102097.88;;;21.55;100.00
11987;BME280;6053;51.382;6.768;2023-06-24T06:37:32;102103.34;;;21.92;100.00
11987;BME280;6053;51.382;6.768;2023-06-24T06:40:01;102109.69;;;22.40;100.00
11987;BME280;6053;51.382;6.768;2023-06-24T06:42:29;102102.09;;;21.57;100.00
11987;BME280;6053;51.382;6.768;2023-06-24T06:44:58;102109.09;;;21.12;100.00
11987;BME280;6053;51.382;6.768;2023-06-24T06:47:26;102102.16;;;21.20;100.00
11987;BME280;6053;51.382;6.768;2023-06-24T06:49:54;102112.97;;;21.44;100.00
11987;BME280;6053;51.382;6.768;2023-06-24T06:52:23;102110.59;;;21.25;100.00
11987;BME280;6053;51.382;6.768;2023-06-24T06:54:52;102115.84;;;22.32;100.00
11987;BME280;6053;51.382;6.768;2023-06-24T06:57:21;102118.59;;;23.60;100.00
11987;BME280;6053;51.382;6.768;2023-06-24T06:59:50;102124.94;;;24.01;99.30
11987;BME280;6053;51.382;6.768;2023-06-24T07:02:19;102125.56;;;23.88;100.00
11987;BME280;6053;51.382;6.768;2023-06-24T07:04:47;102116.69;;;23.45;100.00
11987;BME280;6053;51.382;6.768;2023-06-24T07:07:15;102120.88;;;23.52;100.00
11987;BME280;6053;51.382;6.768;2023-06-24T07:09:44;102126.91;;;24.50;96.14
11987;BME280;6053;51.382;6.768;2023-06-24T07:12:14;102131.22;;;23.67;100.00
11987;BME280;6053;51.382;6.768;2023-06-24T07:14:42;102132.88;;;23.89;98.62
11987;BME280;6053;51.382;6.768;2023-06-24T07:17:11;102142.59;;;23.42;100.00
11987;BME280;6053;51.382;6.768;2023-06-24T07:19:39;102135.78;;;24.73;94.38
11987;BME280;6053;51.382;6.768;2023-06-24T07:22:07;102130.22;;;24.97;88.40
11987;BME280;6053;51.382;6.768;2023-06-24T07:24:36;102128.13;;;24.34;92.89
11987;BME280;6053;51.382;6.768;2023-06-24T07:27:05;102125.91;;;24.70;89.29
11987;BME280;6053;51.382;6.768;2023-06-24T07:29:35;102134.75;;;25.27;89.03
11987;BME280;6053;51.382;6.768;2023-06-24T07:32:04;102127.72;;;24.90;90.90
11987;BME280;6053;51.382;6.768;2023-06-24T07:34:45;102130.56;;;24.51;87.74
11987;BME280;6053;51.382;6.768;2023-06-24T07:37:13;102125.44;;;25.50;86.52
11987;BME280;6053;51.382;6.768;2023-06-24T07:39:51;102141.56;;;25.74;77.98
11987;BME280;6053;51.382;6.768;2023-06-24T07:42:19;102127.50;;;24.81;79.54
11987;BME280;6053;51.382;6.768;2023-06-24T07:44:49;102130.50;;;25.53;78.63
11987;BME280;6053;51.382;6.768;2023-06-24T07:47:18;102141.66;;;26.87;72.15
11987;BME280;6053;51.382;6.768;2023-06-24T07:49:46;102132.38;;;25.87;73.46
11987;BME280;6053;51.382;6.768;2023-06-24T07:52:15;102128.53;;;26.59;73.06
11987;BME280;6053;51.382;6.768;2023-06-24T07:54:43;102130.84;;;26.56;71.84
11987;BME280;6053;51.382;6.768;2023-06-24T07:57:12;102136.69;;;27.12;69.21
11987;BME280;6053;51.382;6.768;2023-06-24T07:59:42;102136.16;;;27.42;68.91
11987;BME280;6053;51.382;6.768;2023-06-24T08:02:12;102135.34;;;26.58;68.01
11987;BME280;6053;51.382;6.768;2023-06-24T08:04:40;102134.63;;;27.91;64.67
11987;BME280;6053;51.382;6.768;2023-06-24T08:07:09;102139.38;;;28.32;60.21
11987;BME280;6053;51.382;6.768;2023-06-24T08:09:37;102139.06;;;28.70;56.13
11987;BME280;6053;51.382;6.768;2023-06-24T08:12:07;102138.06;;;29.51;55.43
11987;BME280;6053;51.382;6.768;2023-06-24T08:14:35;102133.78;;;27.63;60.24
11987;BME280;6053;51.382;6.768;2023-06-24T08:17:04;102134.25;;;26.72;61.22
11987;BME280;6053;51.382;6.768;2023-06-24T08:19:33;102134.13;;;27.15;62.14
11987;BME280;6053;51.382;6.768;2023-06-24T08:22:02;102123.44;;;27.26;60.77
11987;BME280;6053;51.382;6.768;2023-06-24T08:24:31;102132.41;;;27.88;60.71
11987;BME280;6053;51.382;6.768;2023-06-24T08:26:59;102132.63;;;27.78;59.61
11987;BME280;6053;51.382;6.768;2023-06-24T08:29:28;102127.63;;;28.84;56.54
11987;BME280;6053;51.382;6.768;2023-06-24T08:31:56;102124.03;;;29.15;55.45
11987;BME280;6053;51.382;6.768;2023-06-24T08:34:24;102117.38;;;28.02;54.21
11987;BME280;6053;51.382;6.768;2023-06-24T08:36:54;102117.78;;;28.09;55.41
11987;BME280;6053;51.382;6.768;2023-06-24T08:39:22;102116.53;;;27.46;56.80
11987;BME280;6053;51.382;6.768;2023-06-24T08:41:51;102114.97;;;27.40;58.37
11987;BME280;6053;51.382;6.768;2023-06-24T08:44:20;102108.25;;;27.63;56.18
11987;BME280;6053;51.382;6.768;2023-06-24T08:46:48;102122.84;;;28.48;54.42
11987;BME280;6053;51.382;6.768;2023-06-24T08:49:29;102105.06;;;29.01;55.66
11987;BME280;6053;51.382;6.768;2023-06-24T08:52:07;102111.09;;;27.91;55.28
11987;BME280;6053;51.382;6.768;2023-06-24T08:54:36;102108.50;;;28.31;55.40
11987;BME280;6053;51.382;6.768;2023-06-24T08:57:06;102112.09;;;28.09;53.31
11987;BME280;6053;51.382;6.768;2023-06-24T08:59:37;102112.28;;;28.85;53.52
11987;BME280;6053;51.382;6.768;2023-06-24T09:02:06;102122.19;;;28.74;52.53
11987;BME280;6053;51.382;6.768;2023-06-24T09:04:34;102112.03;;;29.18;51.15
11987;BME280;6053;51.382;6.768;2023-06-24T09:07:04;102106.16;;;27.83;51.50
11987;BME280;6053;51.382;6.768;2023-06-24T09:09:42;102119.97;;;28.84;54.13
11987;BME280;6053;51.382;6.768;2023-06-24T09:12:14;102108.47;;;29.12;49.30
11987;BME280;6053;51.382;6.768;2023-06-24T09:14:48;102111.94;;;27.78;50.31
11987;BME280;6053;51.382;6.768;2023-06-24T09:17:17;102108.34;;;28.00;51.67
11987;BME280;6053;51.382;6.768;2023-06-24T09:19:50;102104.78;;;27.94;51.46
11987;BME280;6053;51.382;6.768;2023-06-24T09:22:20;102097.31;;;28.48;53.29
11987;BME280;6053;51.382;6.768;2023-06-24T09:24:48;102099.47;;;28.74;49.94
11987;BME280;6053;51.382;6.768;2023-06-24T09:27:18;102092.59;;;27.38;53.92
11987;BME280;6053;51.382;6.768;2023-06-24T09:29:48;102085.22;;;29.41;54.46
11987;BME280;6053;51.382;6.768;2023-06-24T09:32:17;102088.13;;;29.27;54.84
11987;BME280;6053;51.382;6.768;2023-06-24T09:34:46;102085.34;;;28.60;48.99
11987;BME280;6053;51.382;6.768;2023-06-24T09:37:22;102076.06;;;28.09;56.74
11987;BME280;6053;51.382;6.768;2023-06-24T09:39:51;102082.19;;;28.39;50.40
11987;BME280;6053;51.382;6.768;2023-06-24T09:42:21;102077.38;;;28.84;54.58
11987;BME280;6053;51.382;6.768;2023-06-24T09:44:54;102077.06;;;28.41;52.72
11987;BME280;6053;51.382;6.768;2023-06-24T09:47:22;102078.41;;;28.07;54.90
11987;BME280;6053;51.382;6.768;2023-06-24T09:49:53;102070.50;;;28.85;50.31
11987;BME280;6053;51.382;6.768;2023-06-24T09:52:23;102073.63;;;29.29;52.36
11987;BME280;6053;51.382;6.768;2023-06-24T09:54:54;102063.88;;;29.21;54.73
11987;BME280;6053;51.382;6.768;2023-06-24T09:57:29;102064.13;;;29.02;49.53
11987;BME280;6053;51.382;6.768;2023-06-24T09:59:59;102066.09;;;29.24;50.88
11987;BME280;6053;51.382;6.768;2023-06-24T10:02:28;102067.09;;;28.52;49.39
11987;BME280;6053;51.382;6.768;2023-06-24T10:05:00;102065.25;;;28.11;50.51
11987;BME280;6053;51.382;6.768;2023-06-24T10:07:31;102058.09;;;29.04;49.09
11987;BME280;6053;51.382;6.768;2023-06-24T10:10:02;102056.22;;;28.32;44.91
11987;BME280;6053;51.382;6.768;2023-06-24T10:12:31;102056.53;;;28.44;47.10
11987;BME280;6053;51.382;6.768;2023-06-24T10:15:00;102056.16;;;28.23;43.75
11987;BME280;6053;51.382;6.768;2023-06-24T10:17:29;102051.72;;;28.31;53.35
11987;BME280;6053;51.382;6.768;2023-06-24T10:20:03;102055.13;;;29.09;42.13
11987;BME280;6053;51.382;6.768;2023-06-24T10:22:34;102046.44;;;28.83;38.50
11987;BME280;6053;51.382;6.768;2023-06-24T10:25:06;102050.44;;;28.82;36.43
11987;BME280;6053;51.382;6.768;2023-06-24T10:27:39;102045.69;;;28.69;36.22
11987;BME280;6053;51.382;6.768;2023-06-24T10:30:17;102039.63;;;28.93;37.66
11987;BME280;6053;51.382;6.768;2023-06-24T10:32:51;102041.09;;;28.81;40.67
11987;BME280;6053;51.382;6.768;2023-06-24T10:35:23;102033.00;;;29.37;38.14
11987;BME280;6053;51.382;6.768;2023-06-24T10:37:58;102032.50;;;29.35;33.96
11987;BME280;6053;51.382;6.768;2023-06-24T10:40:37;102028.84;;;29.34;43.59
11987;BME280;6053;51.382;6.768;2023-06-24T10:43:26;102024.06;;;29.61;41.85
11987;BME280;6053;51.382;6.768;2023-06-24T10:45:57;102018.31;;;29.44;43.92
11987;BME280;6053;51.382;6.768;2023-06-24T10:48:26;102018.06;;;28.60;45.97
11987;BME280;6053;51.382;6.768;2023-06-24T10:50:55;102016.41;;;29.30;45.29
11987;BME280;6053;51.382;6.768;2023-06-24T10:53:24;102014.38;;;28.37;43.63
11987;BME280;6053;51.382;6.768;2023-06-24T10:55:57;102003.47;;;28.08;51.41
11987;BME280;6053;51.382;6.768;2023-06-24T10:58:26;102012.78;;;28.45;44.40
11987;BME280;6053;51.382;6.768;2023-06-24T11:01:07;102003.72;;;29.28;43.90
11987;BME280;6053;51.382;6.768;2023-06-24T11:03:36;102003.97;;;28.33;42.29
11987;BME280;6053;51.382;6.768;2023-06-24T11:06:10;102007.16;;;27.31;44.34
11987;BME280;6053;51.382;6.768;2023-06-24T11:08:44;102002.19;;;28.59;43.19
11987;BME280;6053;51.382;6.768;2023-06-24T11:11:19;101997.25;;;29.53;46.32
11987;BME280;6053;51.382;6.768;2023-06-24T11:13:49;102008.50;;;29.10;40.08
11987;BME280;6053;51.382;6.768;2023-06-24T11:16:21;101997.50;;;29.66;41.42
11987;BME280;6053;51.382;6.768;2023-06-24T11:18:49;102000.34;;;29.66;45.61
11987;BME280;6053;51.382;6.768;2023-06-24T11:21:18;101992.63;;;29.66;41.82
11987;BME280;6053;51.382;6.768;2023-06-24T11:23:47;101988.63;;;29.76;47.58
11987;BME280;6053;51.382;6.768;2023-06-24T11:26:16;101992.84;;;29.21;45.64
11987;BME280;6053;51.382;6.768;2023-06-24T11:28:44;101981.25;;;28.78;44.99
11987;BME280;6053;51.382;6.768;2023-06-24T11:31:12;101985.94;;;29.05;42.96
11987;BME280;6053;51.382;6.768;2023-06-24T11:33:42;101977.19;;;29.50;40.86
11987;BME280;6053;51.382;6.768;2023-06-24T11:36:10;101980.84;;;29.42;41.12
11987;BME280;6053;51.382;6.768;2023-06-24T11:38:38;101977.16;;;29.32;41.73
11987;BME280;6053;51.382;6.768;2023-06-24T11:41:08;101975.16;;;28.62;47.80
11987;BME280;6053;51.382;6.768;2023-06-24T11:43:36;101979.16;;;28.16;39.80
11987;BME280;6053;51.382;6.768;2023-06-24T11:46:05;101976.97;;;27.77;45.41
11987;BME280;6053;51.382;6.768;2023-06-24T11:48:39;101979.16;;;28.38;43.76
11987;BME280;6053;51.382;6.768;2023-06-24T11:51:12;101979.59;;;29.08;42.65
11987;BME280;6053;51.382;6.768;2023-06-24T11:53:42;101975.56;;;29.09;40.12
11987;BME280;6053;51.382;6.768;2023-06-24T11:56:12;101968.94;;;28.60;40.39
11987;BME280;6053;51.382;6.768;2023-06-24T11:58:43;101966.72;;;27.67;42.06
11987;BME280;6053;51.382;6.768;2023-06-24T12:01:11;101969.25;;;28.81;41.67
11987;BME280;6053;51.382;6.768;2023-06-24T12:03:41;101962.44;;;28.37;43.85
11987;BME280;6053;51.382;6.768;2023-06-24T12:06:10;101967.81;;;28.61;48.99
11987;BME280;6053;51.382;6.768;2023-06-24T12:08:38;101965.06;;;28.87;44.63
11987;BME280;6053;51.382;6.768;2023-06-24T12:11:19;101960.13;;;28.61;38.07
11987;BME280;6053;51.382;6.768;2023-06-24T12:13:48;101954.66;;;28.42;41.42
11987;BME280;6053;51.382;6.768;2023-06-24T12:16:16;101952.00;;;28.46;48.92
11987;BME280;6053;51.382;6.768;2023-06-24T12:18:45;101954.47;;;28.70;44.21
11987;BME280;6053;51.382;6.768;2023-06-24T12:21:13;101961.09;;;28.97;47.06
11987;BME280;6053;51.382;6.768;2023-06-24T12:23:41;101951.75;;;28.87;45.24
11987;BME280;6053;51.382;6.768;2023-06-24T12:26:09;101951.06;;;29.30;38.60
11987;BME280;6053;51.382;6.768;2023-06-24T12:28:39;101951.44;;;29.46;38.60
11987;BME280;6053;51.382;6.768;2023-06-24T12:31:07;101948.38;;;29.25;34.37
11987;BME280;6053;51.382;6.768;2023-06-24T12:33:36;101939.16;;;29.11;47.28
11987;BME280;6053;51.382;6.768;2023-06-24T12:36:04;101946.25;;;29.57;40.94
11987;BME280;6053;51.382;6.768;2023-06-24T12:38:33;101938.44;;;28.65;38.56
11987;BME280;6053;51.382;6.768;2023-06-24T12:41:02;101931.56;;;28.58;39.94
11987;BME280;6053;51.382;6.768;2023-06-24T12:43:31;101937.13;;;28.72;35.00
11987;BME280;6053;51.382;6.768;2023-06-24T12:46:01;101925.13;;;28.83;39.94
11987;BME280;6053;51.382;6.768;2023-06-24T12:48:29;101931.72;;;28.61;38.22
11987;BME280;6053;51.382;6.768;2023-06-24T12:50:58;101931.09;;;28.73;39.73
11987;BME280;6053;51.382;6.768;2023-06-24T12:53:26;101932.28;;;29.12;37.11
11987;BME280;6053;51.382;6.768;2023-06-24T12:55:54;101935.03;;;29.34;34.87
11987;BME280;6053;51.382;6.768;2023-06-24T12:58:24;101933.16;;;29.30;43.09
11987;BME280;6053;51.382;6.768;2023-06-24T13:00:53;101934.38;;;29.55;33.29
11987;BME280;6053;51.382;6.768;2023-06-24T13:03:23;101931.41;;;29.60;31.87
11987;BME280;6053;51.382;6.768;2023-06-24T13:05:51;101935.38;;;29.42;33.07
11987;BME280;6053;51.382;6.768;2023-06-24T13:08:20;101931.19;;;30.17;30.09
11987;BME280;6053;51.382;6.768;2023-06-24T13:10:48;101937.72;;;29.57;30.97
11987;BME280;6053;51.382;6.768;2023-06-24T13:13:17;101931.28;;;29.08;36.94
11987;BME280;6053;51.382;6.768;2023-06-24T13:15:45;101925.72;;;29.77;34.72